createdAt,value
2018-07-04T00:00:38.570Z,7.20
2018-07-04T00:03:17.673Z,8.10
2018-07-04T00:05:56.503Z,7.00
2018-07-04T00:08:35.355Z,7.90
2018-07-04T00:11:14.257Z,7.57
2018-07-04T00:13:53.114Z,7.20
2018-07-04T00:16:32.020Z,7.63
2018-07-04T00:19:10.859Z,7.30
2018-07-04T00:21:49.801Z,7.47
2018-07-04T00:24:28.525Z,8.53
2018-07-04T00:27:07.398Z,8.13
2018-07-04T00:29:46.291Z,7.50
2018-07-04T00:32:25.250Z,7.70
2018-07-04T00:35:04.108Z,7.80
2018-07-04T00:37:43.022Z,8.30
2018-07-04T00:40:21.894Z,7.13
2018-07-04T00:43:00.914Z,7.60
2018-07-04T00:45:39.842Z,7.60
2018-07-04T00:48:18.970Z,7.10
2018-07-04T00:50:57.834Z,8.10
2018-07-04T00:53:36.787Z,7.83
2018-07-04T00:56:15.806Z,8.00
2018-07-04T00:58:54.886Z,7.30
2018-07-04T01:01:28.054Z,7.93
2018-07-04T01:04:07.001Z,7.30
2018-07-04T01:06:46.020Z,8.20
2018-07-04T01:09:25.187Z,7.90
2018-07-04T01:12:04.032Z,8.30
2018-07-04T01:14:43.068Z,7.73
2018-07-04T01:17:22.049Z,7.97
2018-07-04T01:20:01.155Z,7.83
2018-07-04T01:22:40.145Z,8.17
2018-07-04T01:25:19.156Z,8.30
2018-07-04T01:27:52.376Z,8.27
2018-07-04T01:30:25.578Z,8.23
2018-07-04T01:32:58.712Z,9.53
2018-07-04T01:35:37.640Z,8.63
2018-07-04T01:38:16.597Z,9.60
2018-07-04T01:40:55.641Z,8.37
2018-07-04T01:43:34.573Z,9.07
2018-07-04T01:46:13.561Z,9.00
2018-07-04T01:48:52.534Z,8.20
2018-07-04T01:51:31.564Z,8.87
2018-07-04T01:54:10.736Z,8.70
2018-07-04T01:56:49.814Z,8.87
2018-07-04T01:59:28.836Z,8.60
2018-07-04T02:02:07.694Z,8.97
2018-07-04T02:04:46.586Z,9.00
2018-07-04T02:07:25.494Z,7.90
2018-07-04T02:10:04.370Z,7.80
2018-07-04T02:12:43.260Z,9.20
2018-07-04T02:15:22.397Z,9.20
2018-07-04T02:18:01.287Z,9.17
2018-07-04T02:20:40.202Z,8.83
2018-07-04T02:23:15.560Z,9.23
2018-07-04T02:25:54.292Z,8.67
2018-07-04T02:28:33.211Z,9.33
2018-07-04T02:31:12.097Z,9.00
2018-07-04T02:33:50.955Z,8.80
2018-07-04T02:36:29.797Z,9.50
2018-07-04T02:39:08.655Z,9.40
2018-07-04T02:41:47.481Z,8.87
2018-07-04T02:44:26.500Z,9.20
2018-07-04T02:47:05.313Z,9.37
2018-07-04T02:49:44.373Z,9.33
2018-07-04T02:52:23.093Z,9.53
2018-07-04T02:55:02.001Z,10.60
2018-07-04T02:57:40.719Z,10.30
2018-07-04T03:00:19.642Z,11.23
2018-07-04T03:02:58.531Z,10.30
2018-07-04T03:05:37.239Z,10.03
2018-07-04T03:08:16.045Z,10.00
2018-07-04T03:10:54.933Z,9.00
2018-07-04T03:13:33.809Z,9.23
2018-07-04T03:16:12.773Z,10.27
2018-07-04T03:18:51.527Z,8.77
2018-07-04T03:21:30.389Z,9.50
2018-07-04T03:24:09.252Z,8.87
2018-07-04T03:26:48.125Z,9.57
2018-07-04T03:29:27.066Z,9.30
2018-07-04T03:32:05.980Z,10.23
2018-07-04T03:34:44.846Z,10.50
2018-07-04T03:37:23.715Z,10.63
2018-07-04T03:40:02.591Z,10.30
2018-07-04T03:42:41.398Z,9.73
2018-07-04T03:45:20.263Z,10.33
2018-07-04T03:47:59.147Z,9.57
2018-07-04T03:50:37.957Z,9.50
2018-07-04T03:53:16.789Z,9.70
2018-07-04T03:55:55.537Z,9.50
2018-07-04T03:58:34.398Z,9.30
2018-07-04T04:01:13.285Z,10.17
2018-07-04T04:03:52.135Z,9.60
2018-07-04T04:06:30.897Z,9.63
2018-07-04T04:09:09.793Z,10.60
2018-07-04T04:11:48.870Z,11.00
2018-07-04T04:14:27.608Z,10.50
2018-07-04T04:17:06.324Z,8.90
2018-07-04T04:19:45.305Z,9.60
2018-07-04T04:22:24.065Z,9.60
2018-07-04T04:25:02.945Z,9.73
2018-07-04T04:27:41.763Z,10.00
2018-07-04T04:30:20.834Z,8.80
2018-07-04T04:32:59.663Z,8.70
2018-07-04T04:35:38.530Z,9.10
2018-07-04T04:38:17.389Z,9.30
2018-07-04T04:40:56.258Z,9.63
2018-07-04T04:43:35.093Z,9.40
2018-07-04T04:46:14.070Z,8.90
2018-07-04T04:48:47.324Z,9.53
2018-07-04T04:51:26.248Z,9.30
2018-07-04T04:54:05.271Z,8.40
2018-07-04T04:56:44.373Z,8.90
2018-07-04T04:59:23.375Z,9.37
2018-07-04T05:02:02.334Z,9.30
2018-07-04T05:04:41.343Z,9.00
2018-07-04T05:07:20.365Z,6.30
2018-07-04T05:09:59.188Z,7.57
2018-07-04T05:12:38.150Z,8.07
2018-07-04T05:15:11.353Z,9.80
2018-07-04T05:17:44.488Z,8.83
2018-07-04T05:20:23.516Z,8.67
2018-07-04T05:23:02.415Z,9.27
2018-07-04T05:25:42.018Z,9.10
2018-07-04T05:28:21.063Z,9.50
2018-07-04T05:30:59.954Z,9.93
2018-07-04T05:33:39.101Z,10.23
2018-07-04T05:36:17.928Z,9.37
2018-07-04T05:38:56.844Z,10.53
2018-07-04T05:41:35.723Z,9.20
2018-07-04T05:44:08.968Z,8.97
2018-07-04T05:46:48.122Z,7.90
2018-07-04T05:49:26.915Z,8.73
2018-07-04T05:52:05.612Z,8.30
2018-07-04T05:54:44.527Z,8.70
2018-07-04T05:57:23.420Z,8.37
2018-07-04T06:00:02.387Z,8.07
2018-07-04T06:02:41.254Z,7.20
2018-07-04T06:05:20.147Z,7.43
2018-07-04T06:07:59.203Z,6.90
2018-07-04T06:10:38.155Z,6.73
2018-07-04T06:13:17.095Z,7.57
2018-07-04T06:15:56.069Z,7.03
2018-07-04T06:18:35.019Z,7.40
2018-07-04T06:21:13.953Z,7.20
2018-07-04T06:23:52.947Z,7.97
2018-07-04T06:26:31.960Z,7.57
2018-07-04T06:29:05.121Z,7.70
2018-07-04T06:31:44.149Z,7.67
2018-07-04T06:34:23.116Z,7.17
2018-07-04T06:37:02.313Z,7.00
2018-07-04T06:39:28.785Z,7.10
2018-07-04T06:41:55.320Z,6.27
2018-07-04T06:44:21.835Z,6.63
2018-07-04T06:46:48.321Z,6.90
2018-07-04T06:49:14.830Z,6.70
2018-07-04T06:51:41.318Z,6.80
2018-07-04T06:54:07.832Z,6.70
2018-07-04T06:56:34.387Z,6.80
2018-07-04T06:59:00.870Z,5.80
2018-07-04T07:01:27.321Z,6.00
2018-07-04T07:04:06.189Z,5.20
2018-07-04T07:06:45.071Z,6.57
2018-07-04T07:09:23.952Z,5.77
2018-07-04T07:12:02.839Z,4.97
2018-07-04T07:14:41.758Z,5.20
2018-07-04T07:17:20.729Z,5.60
2018-07-04T07:19:59.546Z,5.37
2018-07-04T07:22:38.272Z,5.13
2018-07-04T07:25:17.140Z,5.20
2018-07-04T07:27:56.172Z,4.70
2018-07-04T07:30:35.094Z,4.93
2018-07-04T07:33:14.096Z,5.00
2018-07-04T07:35:53.004Z,5.33
2018-07-04T07:38:31.962Z,4.90
2018-07-04T07:41:11.085Z,5.47
2018-07-04T07:43:50.094Z,5.00
2018-07-04T07:46:29.021Z,5.20
2018-07-04T07:49:02.083Z,5.47
2018-07-04T07:51:41.016Z,5.73
2018-07-04T07:54:20.122Z,5.40
2018-07-04T07:56:59.083Z,4.50
2018-07-04T07:59:37.989Z,4.83
2018-07-04T08:02:17.000Z,5.57
2018-07-04T08:04:55.930Z,5.10
2018-07-04T08:07:35.018Z,5.00
2018-07-04T08:10:14.061Z,4.63
2018-07-04T08:12:53.032Z,4.37
2018-07-04T08:15:32.023Z,4.40
2018-07-04T08:18:11.003Z,4.43
2018-07-04T08:20:50.043Z,3.80
2018-07-04T08:23:28.917Z,5.00
2018-07-04T08:26:07.847Z,4.70
2018-07-04T08:28:46.917Z,3.90
2018-07-04T08:31:25.920Z,3.70
2018-07-04T08:34:05.087Z,4.63
2018-07-04T08:36:44.029Z,3.30
2018-07-04T08:39:22.924Z,3.40
2018-07-04T08:42:02.001Z,3.97
2018-07-04T08:44:40.929Z,4.20
2018-07-04T08:47:19.753Z,4.03
2018-07-04T08:49:58.842Z,4.60
2018-07-04T08:52:37.967Z,4.50
2018-07-04T08:55:16.905Z,3.93
2018-07-04T08:57:55.773Z,4.17
2018-07-04T09:00:28.908Z,4.20
2018-07-04T09:03:07.957Z,3.90
2018-07-04T09:05:46.921Z,3.20
2018-07-04T09:08:25.883Z,3.63
2018-07-04T09:11:04.722Z,3.73
2018-07-04T09:13:43.637Z,3.60
2018-07-04T09:16:22.640Z,3.50
2018-07-04T09:19:01.689Z,4.30
2018-07-04T09:21:40.760Z,2.80
2018-07-04T09:24:19.710Z,3.30
2018-07-04T09:26:58.773Z,3.30
2018-07-04T09:29:31.904Z,2.60
2018-07-04T09:32:10.735Z,3.77
2018-07-04T09:34:49.808Z,3.50
2018-07-04T09:37:28.839Z,3.47
2018-07-04T09:40:07.782Z,2.80
2018-07-04T09:42:46.658Z,3.40
2018-07-04T09:45:25.681Z,3.90
2018-07-04T09:48:04.706Z,3.60
2018-07-04T09:50:43.526Z,3.10
2018-07-04T09:53:22.534Z,3.80
2018-07-04T09:56:01.420Z,3.30
2018-07-04T09:58:40.597Z,3.37
2018-07-04T10:01:23.900Z,2.50
2018-07-04T10:04:02.861Z,3.23
2018-07-04T10:06:42.098Z,3.10
2018-07-04T10:09:21.184Z,3.40
2018-07-04T10:12:00.078Z,4.23
2018-07-04T10:14:38.891Z,3.40
2018-07-04T10:17:17.621Z,3.10
2018-07-04T10:19:56.477Z,3.67
2018-07-04T10:22:35.372Z,3.10
2018-07-04T10:25:14.222Z,3.33
2018-07-04T10:27:53.095Z,3.37
2018-07-04T10:30:32.127Z,3.33
2018-07-04T10:33:10.884Z,3.47
2018-07-04T10:35:49.615Z,4.13
2018-07-04T10:38:28.471Z,3.13
2018-07-04T10:41:07.369Z,3.23
2018-07-04T10:43:46.298Z,4.23
2018-07-04T10:46:25.054Z,4.20
2018-07-04T10:49:03.940Z,4.33
2018-07-04T10:51:42.812Z,4.20
2018-07-04T10:54:21.733Z,4.30
2018-07-04T10:57:00.670Z,3.80
2018-07-04T10:59:39.493Z,3.37
2018-07-04T11:02:18.341Z,3.43
2018-07-04T11:04:57.165Z,3.50
2018-07-04T11:07:36.085Z,3.03
2018-07-04T11:10:14.933Z,4.60
2018-07-04T11:12:53.859Z,3.67
2018-07-04T11:15:32.669Z,3.43
2018-07-04T11:18:11.685Z,3.70
2018-07-04T11:20:50.511Z,3.30
2018-07-04T11:23:23.671Z,3.13
2018-07-04T11:26:02.679Z,3.17
2018-07-04T11:28:41.610Z,3.00
2018-07-04T11:31:20.594Z,3.30
2018-07-04T11:33:59.615Z,2.30
2018-07-04T11:36:38.679Z,3.13
2018-07-04T11:39:17.610Z,3.50
2018-07-04T11:41:56.386Z,2.80
2018-07-04T11:44:35.324Z,2.80
2018-07-04T11:47:01.784Z,2.90
2018-07-04T11:49:28.282Z,2.67
2018-07-04T11:51:54.790Z,2.53
2018-07-04T11:54:21.251Z,2.67
2018-07-04T11:56:47.735Z,3.23
2018-07-04T11:59:14.268Z,2.50
2018-07-04T12:01:40.821Z,3.03
2018-07-04T12:04:19.652Z,2.30
2018-07-04T12:06:58.690Z,3.03
2018-07-04T12:09:25.175Z,3.10
2018-07-04T12:11:51.682Z,2.90
2018-07-04T12:14:18.208Z,3.10
2018-07-04T12:16:44.697Z,3.00
2018-07-04T12:19:11.202Z,3.10
2018-07-04T12:21:37.662Z,3.00
2018-07-04T12:24:04.126Z,3.03
2018-07-04T12:26:30.639Z,3.40
2018-07-04T12:28:57.587Z,3.30
2018-07-04T12:31:24.735Z,3.23
2018-07-04T12:33:51.270Z,3.20
2018-07-04T12:36:17.746Z,3.60
2018-07-04T12:38:44.221Z,3.43
2018-07-04T12:41:10.681Z,4.00
2018-07-04T12:43:37.302Z,3.60
2018-07-04T12:46:03.691Z,3.27
2018-07-04T12:48:30.257Z,3.47
2018-07-04T12:50:56.753Z,3.40
2018-07-04T12:53:23.242Z,3.67
2018-07-04T12:56:02.029Z,3.83
2018-07-04T12:58:40.843Z,4.10
2018-07-04T13:01:19.686Z,4.60
2018-07-04T13:03:58.522Z,3.90
2018-07-04T13:06:37.407Z,4.20
2018-07-04T13:09:16.134Z,4.97
2018-07-04T13:11:55.148Z,4.43
2018-07-04T13:14:33.973Z,5.13
2018-07-04T13:17:12.821Z,4.37
2018-07-04T13:19:51.796Z,4.53
2018-07-04T13:22:30.787Z,4.90
2018-07-04T13:25:09.789Z,4.80
2018-07-04T13:27:48.573Z,4.33
2018-07-04T13:30:27.506Z,4.63
2018-07-04T13:33:06.412Z,4.97
2018-07-04T13:35:39.539Z,4.50
2018-07-04T13:38:18.439Z,4.90
2018-07-04T13:40:57.362Z,4.70
2018-07-04T13:43:36.303Z,5.30
2018-07-04T13:46:15.281Z,4.07
2018-07-04T13:48:54.222Z,4.87
2018-07-04T13:51:33.247Z,4.63
2018-07-04T13:54:12.214Z,5.60
2018-07-04T13:56:51.184Z,4.80
2018-07-04T13:59:24.401Z,4.53
2018-07-04T14:02:03.367Z,4.57
2018-07-04T14:04:36.520Z,4.37
2018-07-04T14:07:15.558Z,4.23
2018-07-04T14:09:54.536Z,4.00
2018-07-04T14:12:33.447Z,4.43
2018-07-04T14:15:12.514Z,4.30
2018-07-04T14:17:51.476Z,4.67
2018-07-04T14:20:25.037Z,4.40
2018-07-04T14:23:03.898Z,4.33
2018-07-04T14:25:42.833Z,4.63
2018-07-04T14:28:21.775Z,4.30
2018-07-04T14:31:00.847Z,4.47
2018-07-04T14:33:33.983Z,4.60
2018-07-04T14:36:12.966Z,4.40
2018-07-04T14:38:51.931Z,4.13
2018-07-04T14:41:30.747Z,3.80
2018-07-04T14:44:09.615Z,4.40
2018-07-04T14:46:48.508Z,4.37
2018-07-04T14:49:27.388Z,4.17
2018-07-04T14:52:06.661Z,4.30
2018-07-04T14:54:45.382Z,3.93
2018-07-04T14:57:24.306Z,3.57
2018-07-04T15:00:03.098Z,4.63
2018-07-04T15:02:41.886Z,3.80
2018-07-04T15:05:14.896Z,4.17
2018-07-04T15:07:53.812Z,4.70
2018-07-04T15:10:32.672Z,4.20
2018-07-04T15:13:11.463Z,4.63
2018-07-04T15:15:50.419Z,4.30
2018-07-04T15:18:29.330Z,4.53
2018-07-04T15:21:08.302Z,4.50
2018-07-04T15:23:41.556Z,5.50
2018-07-04T15:26:20.471Z,4.87
2018-07-04T15:28:59.504Z,5.30
2018-07-04T15:31:38.371Z,5.40
2018-07-04T15:34:17.459Z,5.63
2018-07-04T15:36:56.272Z,4.83
2018-07-04T15:39:35.339Z,5.00
2018-07-04T15:42:08.415Z,5.00
2018-07-04T15:44:47.345Z,4.97
2018-07-04T15:47:26.187Z,5.17
2018-07-04T15:50:05.263Z,5.47
2018-07-04T15:52:44.327Z,5.70
2018-07-04T15:55:23.342Z,5.83
2018-07-04T15:58:02.396Z,5.37
2018-07-04T16:00:35.596Z,4.87
2018-07-04T16:03:14.528Z,5.20
2018-07-04T16:05:53.589Z,5.10
2018-07-04T16:08:33.087Z,5.20
2018-07-04T16:11:11.879Z,4.77
2018-07-04T16:13:50.692Z,5.23
2018-07-04T16:16:29.662Z,4.80
2018-07-04T16:19:08.459Z,5.37
2018-07-04T16:21:47.214Z,6.57
2018-07-04T16:24:26.163Z,5.93
2018-07-04T16:27:05.011Z,6.50
2018-07-04T16:29:43.767Z,6.93
2018-07-04T16:32:23.007Z,5.97
2018-07-04T16:35:01.752Z,6.83
2018-07-04T16:37:40.785Z,6.03
2018-07-04T16:40:19.587Z,6.10
2018-07-04T16:42:58.533Z,5.70
2018-07-04T16:45:37.266Z,4.97
2018-07-04T16:48:17.204Z,4.93
2018-07-04T16:50:56.077Z,4.87
2018-07-04T16:53:34.950Z,4.73
2018-07-04T16:56:13.726Z,4.83
2018-07-04T16:58:52.552Z,4.00
2018-07-04T17:01:31.276Z,3.70
2018-07-04T17:04:10.147Z,3.33
2018-07-04T17:06:48.989Z,3.83
2018-07-04T17:09:27.914Z,2.03
2018-07-04T17:12:06.826Z,3.17
2018-07-04T17:14:45.636Z,2.53
2018-07-04T17:17:24.483Z,2.20
2018-07-04T17:20:03.363Z,2.60
2018-07-04T17:22:42.165Z,2.13
2018-07-04T17:25:21.179Z,2.60
2018-07-04T17:28:00.048Z,2.07
2018-07-04T17:30:39.079Z,1.97
2018-07-04T17:33:18.257Z,2.73
2018-07-04T17:35:57.304Z,3.67
2018-07-04T17:38:36.362Z,2.87
2018-07-04T17:41:09.529Z,2.63
2018-07-04T17:43:48.308Z,3.70
2018-07-04T17:46:27.098Z,2.80
2018-07-04T17:49:05.820Z,3.30
2018-07-04T17:51:44.772Z,3.00
2018-07-04T17:54:23.550Z,3.60
2018-07-04T17:57:02.393Z,2.90
2018-07-04T17:59:41.180Z,3.40
2018-07-04T18:02:19.888Z,3.70
2018-07-04T18:04:58.712Z,3.80
2018-07-04T18:07:37.584Z,3.57
2018-07-04T18:10:16.392Z,4.43
2018-07-04T18:12:55.403Z,4.00
2018-07-04T18:15:34.343Z,3.57
2018-07-04T18:18:13.132Z,4.13
2018-07-04T18:20:51.854Z,3.77
2018-07-04T18:23:30.735Z,3.37
2018-07-04T18:26:09.663Z,4.40
2018-07-04T18:28:48.478Z,3.97
2018-07-04T18:31:28.023Z,3.40
2018-07-04T18:34:07.369Z,3.47
2018-07-04T18:36:46.129Z,3.97
2018-07-04T18:39:25.031Z,4.53
2018-07-04T18:42:03.938Z,4.70
2018-07-04T18:44:42.923Z,4.17
2018-07-04T18:47:21.765Z,3.93
2018-07-04T18:50:00.652Z,3.97
2018-07-04T18:52:39.460Z,5.00
2018-07-04T18:55:18.297Z,4.30
2018-07-04T18:57:57.067Z,3.60
2018-07-04T19:00:36.132Z,4.13
2018-07-04T19:03:14.979Z,4.43
2018-07-04T19:05:53.787Z,4.37
2018-07-04T19:08:32.619Z,3.90
2018-07-04T19:11:12.002Z,4.30
2018-07-04T19:13:51.524Z,3.70
2018-07-04T19:16:30.699Z,4.97
2018-07-04T19:19:09.638Z,4.13
2018-07-04T19:21:48.474Z,4.60
2018-07-04T19:24:27.248Z,4.90
2018-07-04T19:27:06.046Z,5.63
2018-07-04T19:29:44.951Z,4.13
2018-07-04T19:32:23.846Z,5.80
2018-07-04T19:35:02.670Z,5.80
2018-07-04T19:37:41.785Z,5.97
2018-07-04T19:40:20.599Z,5.70
2018-07-04T19:42:59.566Z,5.90
2018-07-04T19:45:38.354Z,6.60
2018-07-04T19:48:17.138Z,6.40
2018-07-04T19:50:56.251Z,6.70
2018-07-04T19:53:35.219Z,6.57
2018-07-04T19:56:14.216Z,7.03
2018-07-04T19:58:53.143Z,6.60
2018-07-04T20:01:31.903Z,6.43
2018-07-04T20:04:10.769Z,6.70
2018-07-04T20:06:49.588Z,6.33
2018-07-04T20:09:28.522Z,6.33
2018-07-04T20:12:07.325Z,5.73
2018-07-04T20:14:46.138Z,5.83
2018-07-04T20:17:24.930Z,5.60
2018-07-04T20:20:03.809Z,6.80
2018-07-04T20:22:42.792Z,6.50
2018-07-04T20:25:21.887Z,5.93
2018-07-04T20:28:00.826Z,6.20
2018-07-04T20:30:39.791Z,6.40
2018-07-04T20:33:18.978Z,6.70
2018-07-04T20:35:52.277Z,6.07
2018-07-04T20:38:31.193Z,6.43
2018-07-04T20:41:10.099Z,6.37
2018-07-04T20:43:49.270Z,7.10
2018-07-04T20:46:28.342Z,6.77
2018-07-04T20:49:07.526Z,6.60
2018-07-04T20:51:46.575Z,6.13
2018-07-04T20:54:25.690Z,5.97
2018-07-04T20:57:04.601Z,5.90
2018-07-04T20:59:43.572Z,6.40
2018-07-04T21:02:16.762Z,5.70
2018-07-04T21:04:55.645Z,7.13
2018-07-04T21:07:34.696Z,7.30
2018-07-04T21:10:13.601Z,6.80
2018-07-04T21:12:52.712Z,8.13
2018-07-04T21:15:31.609Z,7.27
2018-07-04T21:18:10.670Z,7.40
2018-07-04T21:20:49.654Z,9.47
2018-07-04T21:23:22.810Z,8.67
2018-07-04T21:26:01.859Z,7.50
2018-07-04T21:28:40.776Z,7.63
2018-07-04T21:31:19.826Z,7.03
2018-07-04T21:33:58.853Z,6.47
2018-07-04T21:36:37.904Z,6.70
2018-07-04T21:39:16.954Z,7.50
2018-07-04T21:41:55.992Z,6.33
2018-07-04T21:44:35.052Z,6.67
2018-07-04T21:47:13.934Z,6.50
2018-07-04T21:49:53.062Z,7.10
2018-07-04T21:52:32.081Z,6.17
2018-07-04T21:55:11.050Z,6.00
2018-07-04T21:57:44.258Z,6.30
2018-07-04T22:00:21.513Z,6.10
2018-07-04T22:03:00.468Z,7.63
2018-07-04T22:05:39.447Z,8.07
2018-07-04T22:08:18.736Z,8.27
2018-07-04T22:10:57.621Z,7.40
2018-07-04T22:13:36.340Z,8.30
2018-07-04T22:16:16.397Z,9.80
2018-07-04T22:18:55.096Z,9.27
2018-07-04T22:21:34.008Z,10.10
2018-07-04T22:24:12.926Z,9.73
2018-07-04T22:26:51.773Z,10.40
2018-07-04T22:29:30.577Z,8.90
2018-07-04T22:32:09.451Z,8.07
2018-07-04T22:34:48.304Z,8.90
2018-07-04T22:37:27.233Z,8.30
2018-07-04T22:40:06.109Z,9.10
2018-07-04T22:42:44.999Z,9.23
2018-07-04T22:45:23.887Z,8.70
2018-07-04T22:48:02.727Z,8.87
2018-07-04T22:50:41.745Z,8.73
2018-07-04T22:53:20.582Z,7.43
2018-07-04T22:55:59.325Z,8.93
2018-07-04T22:58:38.317Z,7.70
2018-07-04T23:01:16.991Z,7.67
2018-07-04T23:03:55.872Z,7.00
2018-07-04T23:06:34.708Z,6.37
2018-07-04T23:09:13.580Z,7.17
2018-07-04T23:11:52.422Z,8.17
2018-07-04T23:14:31.302Z,7.73
2018-07-04T23:17:10.145Z,7.40
2018-07-04T23:19:49.002Z,7.17
2018-07-04T23:22:27.851Z,7.70
2018-07-04T23:25:06.768Z,7.70
2018-07-04T23:27:45.588Z,7.13
2018-07-04T23:30:24.474Z,7.30
2018-07-04T23:33:03.370Z,6.43
2018-07-04T23:35:42.242Z,7.17
2018-07-04T23:38:21.075Z,7.70
2018-07-04T23:40:59.968Z,7.33
2018-07-04T23:43:39.586Z,6.43
2018-07-04T23:46:18.523Z,6.90
2018-07-04T23:48:57.422Z,6.70
2018-07-04T23:51:36.266Z,5.23
2018-07-04T23:54:15.154Z,6.87
2018-07-04T23:56:54.260Z,6.67
2018-07-04T23:59:33.147Z,6.30
